Terminal Aerodrome Forecast
Issued by NWS

Home | Current Version | Previous Version | Text Only | Print | Product List | Glossary On
Versions: 1 2 3 4 5 6 7 8 9 10 11 12 13 14 15 16 17 18 19 20 21 22
524
FTUS42 KCAE 300538
TAFCUB
TAF
KCUB 300538Z 3006/3106 10006KT P6SM OVC012
     FM300800 10008KT P6SM OVC008
      TEMPO 3009/3013 5SM BR OVC012
     FM301600 12007KT P6SM VCSH SCT015 BKN025
     FM302000 12006KT P6SM -SHRA VCTS SCT020CB BKN050
     FM310000 13005KT P6SM VCSH BKN040=

USA.gov is the U.S. government's official web portal to all federal, state and local government web resources and services.